Time;durP1;ratioP1;P1;durP2;ratioP2;P2;SDS_P1;SDS_P2;PMS_P1;PMS_P2;Temp;Humidity;BMP_temperature;BMP_pressure;BME280_temperature;BME280_humidity;BME280_pressure;Samples;Min_cycle;Max_cycle;Signal;HPM_P1;HPM_P2
2022/05/14 00:00:08;;;;;;;13.00;9.07;;;15.80;99.90;;;;;;4172943;28;20473;-66
2022/05/14 00:02:11;;;;;;;11.05;9.52;;;15.80;99.90;;;;;;4175481;28;20107;-65
2022/05/14 00:04:12;;;;;;;16.17;9.52;;;15.90;99.90;;;;;;4156607;28;20037;-66
2022/05/14 00:06:17;;;;;;;12.77;9.43;;;15.80;99.90;;;;;;4172640;28;20179;-67
2022/05/14 00:08:18;;;;;;;12.27;9.43;;;15.80;99.90;;;;;;4172857;28;20074;-66
2022/05/14 00:10:24;;;;;;;11.10;8.75;;;15.80;99.90;;;;;;4174022;28;20049;-66
2022/05/14 00:14:44;;;;;;;16.20;8.95;;;15.80;99.90;;;;;;4173989;28;20086;-66
2022/05/14 00:16:46;;;;;;;12.43;8.48;;;15.80;99.90;;;;;;4172771;28;20478;-66
2022/05/14 00:18:47;;;;;;;9.60;8.60;;;15.90;99.90;;;;;;4173620;28;20545;-65
2022/05/14 00:20:49;;;;;;;10.57;8.90;;;15.80;99.90;;;;;;4174575;28;20082;-66
2022/05/14 00:22:52;;;;;;;8.38;7.43;;;15.90;99.90;;;;;;4173234;28;20500;-66
2022/05/14 00:24:53;;;;;;;15.20;8.52;;;15.80;99.90;;;;;;4172325;28;20041;-68
2022/05/14 00:26:54;;;;;;;10.80;7.97;;;15.80;99.90;;;;;;4173881;28;20095;-66
2022/05/14 00:28:55;;;;;;;12.50;9.13;;;15.80;99.90;;;;;;4177355;28;20067;-66
2022/05/14 00:30:57;;;;;;;10.68;8.35;;;15.80;99.90;;;;;;4183073;28;20438;-65
2022/05/14 00:32:58;;;;;;;9.57;8.00;;;15.70;99.90;;;;;;4176408;28;20082;-66
2022/05/14 00:34:59;;;;;;;14.48;7.97;;;15.70;99.90;;;;;;4174426;28;20547;-65
2022/05/14 00:37:00;;;;;;;11.30;8.05;;;15.70;99.90;;;;;;4175381;28;20118;-66
2022/05/14 00:39:02;;;;;;;9.00;7.68;;;15.70;99.90;;;;;;4175255;28;20040;-67
2022/05/14 00:41:06;;;;;;;10.30;8.05;;;15.60;99.90;;;;;;4177673;28;20468;-66
2022/05/14 00:43:07;;;;;;;10.68;8.20;;;15.60;99.90;;;;;;4175581;28;20082;-65
2022/05/14 00:45:10;;;;;;;11.57;8.45;;;15.50;99.90;;;;;;4177573;28;20036;-70
2022/05/14 00:47:16;;;;;;;10.43;7.55;;;15.40;99.90;;;;;;4175645;28;20087;-66
2022/05/14 00:49:21;;;;;;;12.27;9.30;;;15.40;99.90;;;;;;4176162;28;20098;-66
2022/05/14 00:51:28;;;;;;;9.63;7.90;;;15.30;99.90;;;;;;4176032;28;20886;-69
2022/05/14 00:53:36;;;;;;;15.95;8.98;;;15.20;99.90;;;;;;4160098;28;20091;-66
2022/05/14 00:55:39;;;;;;;10.85;8.43;;;15.20;99.90;;;;;;4159627;28;20037;-66
2022/05/14 00:57:41;;;;;;;9.88;8.07;;;15.10;99.90;;;;;;4159491;28;20115;-65
2022/05/14 00:59:43;;;;;;;10.23;7.35;;;15.10;99.90;;;;;;4159601;28;20404;-66
2022/05/14 01:01:45;;;;;;;8.23;7.15;;;15.00;99.90;;;;;;4159558;28;20531;-66
2022/05/14 01:03:47;;;;;;;12.45;7.40;;;15.00;99.90;;;;;;4168975;28;20090;-68
2022/05/14 01:05:48;;;;;;;10.57;7.38;;;15.00;99.90;;;;;;4175207;28;20032;-67
2022/05/14 01:07:52;;;;;;;9.40;6.93;;;15.00;99.90;;;;;;4176558;28;20095;-65
2022/05/14 01:09:59;;;;;;;12.65;6.68;;;14.90;99.90;;;;;;4188931;28;20099;-66
2022/05/14 01:12:00;;;;;;;9.85;6.60;;;14.90;99.90;;;;;;4192612;28;20044;-66
2022/05/14 01:14:01;;;;;;;6.95;6.25;;;14.90;99.90;;;;;;4191621;28;20033;-66
2022/05/14 01:16:03;;;;;;;9.38;6.13;;;14.90;99.90;;;;;;4193213;28;20040;-66
2022/05/14 01:18:04;;;;;;;7.88;6.00;;;14.90;99.90;;;;;;4191313;28;20102;-65
2022/05/14 01:20:07;;;;;;;8.90;6.30;;;14.80;99.90;;;;;;4192456;28;20082;-66
2022/05/14 01:22:16;;;;;;;8.50;6.05;;;14.80;99.90;;;;;;4191640;28;20106;-65
2022/05/14 01:26:48;;;;;;;9.68;6.57;;;14.70;99.90;;;;;;4175333;28;20033;-65
2022/05/14 01:28:50;;;;;;;7.15;5.63;;;14.70;99.90;;;;;;4175843;28;20045;-67
2022/05/14 01:31:01;;;;;;;12.77;6.23;;;14.70;99.90;;;;;;4175057;28;20032;-65
2022/05/14 01:33:05;;;;;;;7.40;6.10;;;14.70;99.90;;;;;;4176123;28;20033;-64
2022/05/14 01:35:07;;;;;;;12.00;5.67;;;14.70;99.90;;;;;;4175120;28;20037;-64
2022/05/14 01:37:10;;;;;;;8.27;5.40;;;14.70;99.90;;;;;;4186385;28;20087;-64
2022/05/14 01:39:11;;;;;;;8.30;5.78;;;14.70;99.90;;;;;;4190625;28;20032;-65
2022/05/14 01:41:12;;;;;;;9.80;5.80;;;14.60;99.90;;;;;;4192111;28;20043;-65
2022/05/14 01:43:14;;;;;;;6.87;5.83;;;14.60;99.90;;;;;;4179447;28;20506;-64
2022/05/14 01:45:15;;;;;;;10.97;5.97;;;14.60;99.90;;;;;;4183544;28;20093;-65
2022/05/14 01:47:16;;;;;;;7.17;6.17;;;14.50;99.90;;;;;;4192019;28;20074;-66
2022/05/14 01:49:18;;;;;;;8.43;4.70;;;14.50;99.90;;;;;;4191318;28;20036;-65
2022/05/14 01:51:20;;;;;;;10.47;6.53;;;14.50;99.90;;;;;;4180340;28;20474;-65
2022/05/14 01:53:21;;;;;;;8.53;6.07;;;14.40;99.90;;;;;;4174776;28;20025;-66
2022/05/14 01:55:22;;;;;;;8.87;5.33;;;14.40;99.90;;;;;;4175532;28;20091;-65
2022/05/14 01:57:23;;;;;;;11.30;5.47;;;14.30;99.90;;;;;;4174227;28;20094;-65
2022/05/14 01:59:26;;;;;;;6.77;5.47;;;14.30;99.90;;;;;;4176117;28;20045;-65
2022/05/14 02:01:31;;;;;;;9.53;5.80;;;14.30;99.90;;;;;;4174774;28;20033;-66
2022/05/14 02:03:32;;;;;;;8.10;6.00;;;14.30;99.90;;;;;;4175707;28;20049;-66
2022/05/14 02:05:33;;;;;;;9.63;5.33;;;14.20;99.90;;;;;;4174114;28;20085;-65
2022/05/14 02:07:34;;;;;;;7.47;5.87;;;14.20;99.90;;;;;;4175274;28;20082;-66
2022/05/14 02:09:36;;;;;;;8.80;5.53;;;14.10;99.90;;;;;;4174232;28;20040;-65
2022/05/14 02:11:39;;;;;;;10.67;5.43;;;14.10;99.90;;;;;;4175073;28;20112;-65
2022/05/14 02:13:42;;;;;;;8.33;5.17;;;14.10;99.90;;;;;;4174719;28;20099;-65
2022/05/14 02:15:43;;;;;;;8.53;4.73;;;14.10;99.90;;;;;;4176361;28;20075;-64
2022/05/14 02:17:44;;;;;;;8.77;4.30;;;14.10;99.90;;;;;;4174618;28;20431;-66
2022/05/14 02:19:47;;;;;;;8.83;5.23;;;14.10;99.90;;;;;;4174086;28;20033;-65
2022/05/14 02:21:48;;;;;;;8.50;4.53;;;14.10;99.90;;;;;;4174925;28;20029;-65
2022/05/14 02:23:50;;;;;;;6.97;4.53;;;14.10;99.90;;;;;;4174060;28;20083;-65
2022/05/14 02:25:51;;;;;;;4.37;3.60;;;14.10;99.90;;;;;;4186820;28;20094;-66
2022/05/14 02:27:52;;;;;;;5.23;3.90;;;14.20;99.90;;;;;;4190231;28;20029;-65
2022/05/14 02:29:54;;;;;;;6.67;4.20;;;14.20;99.90;;;;;;4191647;28;20054;-65
2022/05/14 02:31:55;;;;;;;7.43;3.67;;;14.20;99.90;;;;;;4190300;28;20044;-64
2022/05/14 02:33:56;;;;;;;7.33;3.97;;;14.20;99.90;;;;;;4183920;28;20785;-65
2022/05/14 02:35:58;;;;;;;9.20;3.57;;;14.30;99.90;;;;;;4174172;28;20045;-64
2022/05/14 02:37:59;;;;;;;3.73;3.20;;;14.30;99.90;;;;;;4191350;28;20041;-65
2022/05/14 02:40:01;;;;;;;6.57;3.90;;;14.30;99.90;;;;;;4189983;28;20098;-64
2022/05/14 02:42:03;;;;;;;4.67;3.77;;;14.30;99.90;;;;;;4191179;28;20044;-64
2022/05/14 02:44:04;;;;;;;5.83;3.47;;;14.40;99.90;;;;;;4190391;28;20074;-65
2022/05/14 02:46:06;;;;;;;7.87;3.33;;;14.40;99.90;;;;;;4191224;28;20036;-64
2022/05/14 02:48:10;;;;;;;9.60;4.90;;;14.40;99.90;;;;;;4188644;28;20040;-66
2022/05/14 02:50:12;;;;;;;6.90;3.53;;;14.50;99.90;;;;;;4190306;28;20033;-64
2022/05/14 02:52:13;;;;;;;6.95;3.58;;;14.50;99.90;;;;;;4189984;28;20526;-65
2022/05/14 02:54:14;;;;;;;4.57;3.93;;;14.50;99.90;;;;;;4190194;28;20025;-65
2022/05/14 02:56:15;;;;;;;4.00;3.20;;;14.50;99.90;;;;;;4190399;28;20056;-64
2022/05/14 02:59:06;;;;;;;10.13;3.73;;;14.50;99.90;;;;;;4189893;28;20024;-65
2022/05/14 03:00:37;;;;;;;6.37;3.30;;;14.60;99.90;;;;;;4190944;28;20435;-66
2022/05/14 03:02:38;;;;;;;7.32;3.67;;;14.60;99.90;;;;;;4189673;28;20787;-67
2022/05/14 03:04:42;;;;;;;6.60;3.80;;;14.60;99.90;;;;;;4158452;28;20453;-65
2022/05/14 03:06:44;;;;;;;6.17;3.60;;;14.60;99.90;;;;;;4157036;28;20052;-65
2022/05/14 03:08:45;;;;;;;8.10;3.90;;;14.70;99.90;;;;;;4158134;28;20045;-69
2022/05/14 03:10:46;;;;;;;7.75;3.53;;;14.80;99.90;;;;;;4156842;28;20057;-65
2022/05/14 03:12:47;;;;;;;5.90;3.20;;;14.80;99.90;;;;;;4157852;28;20103;-66
2022/05/14 03:14:50;;;;;;;4.57;3.22;;;14.90;99.90;;;;;;4174112;28;20117;-66
2022/05/14 03:16:51;;;;;;;6.60;3.85;;;15.00;99.90;;;;;;4189756;28;20063;-68
2022/05/14 03:18:52;;;;;;;3.15;2.80;;;15.10;99.90;;;;;;4189906;28;20041;-66
2022/05/14 03:20:53;;;;;;;5.00;3.67;;;15.20;99.90;;;;;;4190225;28;20029;-67
2022/05/14 03:22:54;;;;;;;3.58;3.10;;;15.20;99.90;;;;;;4173159;28;20680;-68
2022/05/14 03:24:55;;;;;;;5.10;3.00;;;15.40;99.90;;;;;;4174069;28;20091;-65
2022/05/14 03:26:56;;;;;;;5.90;3.33;;;15.50;99.90;;;;;;4173539;28;20162;-65
2022/05/14 03:28:57;;;;;;;3.83;2.40;;;15.60;99.90;;;;;;4173579;28;20083;-64
2022/05/14 03:30:59;;;;;;;10.60;2.88;;;15.70;99.90;;;;;;4173843;28;20044;-65
2022/05/14 03:33:00;;;;;;;5.78;3.13;;;15.80;99.90;;;;;;4173311;28;20021;-65
2022/05/14 03:35:05;;;;;;;7.55;2.78;;;16.10;99.90;;;;;;4174242;28;20029;-64
2022/05/14 03:37:06;;;;;;;5.13;2.60;;;16.40;99.90;;;;;;4178856;28;20102;-65
2022/05/14 03:39:08;;;;;;;3.65;2.63;;;16.90;99.90;;;;;;4190931;28;20040;-65
2022/05/14 03:41:09;;;;;;;5.07;2.78;;;17.30;99.90;;;;;;4187414;28;20032;-66
2022/05/14 03:43:10;;;;;;;6.43;3.08;;;17.90;99.90;;;;;;4190776;28;20040;-65
2022/05/14 03:45:12;;;;;;;6.43;2.75;;;18.40;99.90;;;;;;4182329;28;20098;-65
2022/05/14 03:47:13;;;;;;;3.33;2.40;;;19.00;99.90;;;;;;4174081;28;20431;-66
2022/05/14 03:49:14;;;;;;;4.22;2.50;;;19.50;99.90;;;;;;4177293;28;20086;-64
2022/05/14 03:51:15;;;;;;;4.55;2.10;;;20.10;99.90;;;;;;4185173;28;20029;-66
2022/05/14 03:53:17;;;;;;;4.70;2.72;;;20.60;99.90;;;;;;4172727;28;20094;-65
2022/05/14 03:55:18;;;;;;;4.90;2.45;;;20.80;99.90;;;;;;4172018;28;20040;-66
2022/05/14 03:57:19;;;;;;;3.50;2.35;;;20.90;99.90;;;;;;4172673;28;20441;-66
2022/05/14 03:59:20;;;;;;;6.15;2.20;;;21.20;99.90;;;;;;4173128;28;20024;-66
2022/05/14 04:01:21;;;;;;;6.65;2.10;;;21.30;99.90;;;;;;4173378;28;20033;-65
2022/05/14 04:03:22;;;;;;;7.80;2.13;;;21.60;99.90;;;;;;4172603;28;20086;-65
2022/05/14 04:05:23;;;;;;;5.50;2.08;;;21.70;99.90;;;;;;4173899;28;20075;-66
2022/05/14 04:07:25;;;;;;;4.05;2.35;;;21.70;99.90;;;;;;4172807;28;20055;-66
2022/05/14 04:09:26;;;;;;;4.93;2.10;;;21.90;99.90;;;;;;4184710;28;20040;-65
2022/05/14 04:11:27;;;;;;;6.05;2.45;;;22.00;99.90;;;;;;4188614;28;20549;-65
2022/05/14 04:13:29;;;;;;;6.60;1.88;;;22.40;99.90;;;;;;4189289;28;20094;-66
2022/05/14 04:15:30;;;;;;;6.00;2.30;;;22.70;99.90;;;;;;4188944;28;20037;-69
2022/05/14 04:17:31;;;;;;;2.92;2.00;;;;;;;;;;4189912;28;20052;-65
2022/05/14 04:19:33;;;;;;;2.53;2.15;;;;;;;;;;4188853;28;20483;-65
2022/05/14 04:21:34;;;;;;;5.13;2.15;;;;;;;;;;4188522;28;20037;-68
2022/05/14 04:23:36;;;;;;;5.03;1.90;;;;;;;;;;4172589;28;20029;-67
2022/05/14 04:25:37;;;;;;;3.97;1.80;;;;;;;;;;4172848;28;20091;-67
2022/05/14 04:27:41;;;;;;;4.10;1.90;;;;;;;;;;4188449;28;20033;-65
2022/05/14 04:29:43;;;;;;;6.60;1.60;;;;;;;;;;4189083;28;20047;-65
2022/05/14 04:31:44;;;;;;;3.45;1.88;;;;;;;;;;4189193;28;20086;-66
2022/05/14 04:33:46;;;;;;;3.22;1.45;;;;;;;;;;4188991;28;20025;-66
2022/05/14 04:35:47;;;;;;;8.13;2.90;;;;;;;;;;4188786;28;20098;-67
2022/05/14 04:37:48;;;;;;;7.38;1.98;;;;;;;;;;4188189;28;20593;-67
2022/05/14 04:39:50;;;;;;;5.25;2.00;;;;;;;;;;4187693;28;20033;-64
2022/05/14 04:41:51;;;;;;;4.05;1.77;;;;;;;;;;4187728;28;20087;-64
2022/05/14 04:43:52;;;;;;;4.80;1.67;;;;;;;;;;4178513;28;20025;-66
2022/05/14 04:45:54;;;;;;;4.63;1.88;;;;;;;;;;4172618;28;20082;-66
2022/05/14 04:47:56;;;;;;;5.30;1.92;;;;;;;;;;4172740;28;20143;-64
2022/05/14 04:49:57;;;;;;;3.75;1.70;;;;;;;;;;4171296;28;20107;-65
2022/05/14 04:51:59;;;;;;;6.63;1.90;;;;;;;;;;4173079;28;20506;-65
2022/05/14 04:54:00;;;;;;;2.95;1.65;;;;;;;;;;4171775;28;20041;-65
2022/05/14 04:56:01;;;;;;;2.20;1.70;;;;;;;;;;4172562;28;20029;-67
2022/05/14 04:58:03;;;;;;;7.45;1.90;;;;;;;;;;4172890;28;20049;-65
2022/05/14 05:00:05;;;;;;;5.10;1.92;;;;;;;;;;4172598;28;20090;-65
2022/05/14 05:04:28;;;;;;;;;;;;;;;;;;4173027;28;20037;-65
2022/05/14 05:06:29;;;;;;;4.63;1.70;;;;;;;;;;4172561;28;19963;-69
2022/05/14 05:08:32;;;;;;;5.03;1.90;;;;;;;;;;4171023;28;20041;-67
2022/05/14 05:10:33;;;;;;;6.63;2.03;;;;;;;;;;4172127;28;20021;-65
2022/05/14 05:12:35;;;;;;;4.57;1.80;;;;;;;;;;4180507;28;20036;-65
2022/05/14 05:14:37;;;;;;;3.30;1.80;;;;;;;;;;4190624;28;20032;-65
2022/05/14 05:16:38;;;;;;;6.75;1.88;;;;;;;;;;4185441;28;20570;-64
2022/05/14 05:18:40;;;;;;;5.18;1.90;;;;;;;;;;4185305;28;20083;-69
2022/05/14 05:20:43;;;;;;;7.65;3.00;;;;;;;;;;4172603;28;20041;-68
2022/05/14 05:22:44;;;;;;;7.68;2.88;;;;;;;;;;4175447;28;20086;-66
2022/05/14 05:24:46;;;;;;;5.40;2.03;;;;;;;;;;4174380;28;20029;-66
2022/05/14 05:26:48;;;;;;;11.52;3.33;;;;;;;;;;4175736;28;20052;-67
2022/05/14 05:28:49;;;;;;;5.28;2.38;;;;;;;;;;4174537;28;20362;-66
2022/05/14 05:30:51;;;;;;;6.90;1.77;;;;;;;;;;4176010;28;20095;-66
2022/05/14 05:32:52;;;;;;;5.15;1.85;;;;;;;;;;4173499;28;20082;-65
2022/05/14 05:34:54;;;;;;;4.35;1.73;;;;;;;;;;4175041;28;20029;-64
2022/05/14 05:36:55;;;;;;;6.75;1.60;;;;;;;;;;4174274;28;20040;-64
2022/05/14 05:38:57;;;;;;;4.00;1.85;;;;;;;;;;4175094;28;20078;-65
2022/05/14 05:40:58;;;;;;;4.15;2.17;;;;;;;;;;4170367;28;20389;-64
2022/05/14 05:42:59;;;;;;;3.80;2.00;;;;;;;;;;4158129;28;20030;-66
2022/05/14 05:45:01;;;;;;;6.35;1.98;;;;;;;;;;4158689;28;20033;-64
2022/05/14 05:47:06;;;;;;;7.95;2.25;;;;;;;;;;4158850;28;20041;-66
2022/05/14 05:49:07;;;;;;;4.95;2.17;;;;;;;;;;4188609;28;20090;-65
2022/05/14 05:51:09;;;;;;;2.90;2.08;;;;;;;;;;4191984;28;20538;-63
2022/05/14 05:53:11;;;;;;;6.72;2.45;;;;;;;;;;4185392;28;20098;-65
2022/05/14 05:57:37;;;;;;;5.55;2.17;;;;;;;;;;4158979;28;20841;-67
2022/05/14 05:59:38;;;;;;;5.25;1.95;;;;;;;;;;4157991;28;20040;-65
2022/05/14 06:01:40;;;;;;;7.95;2.25;;;;;;;;;;4174250;28;20036;-68
2022/05/14 06:03:41;;;;;;;3.70;2.03;;;;;;;;;;4174334;28;20037;-66
2022/05/14 06:05:43;;;;;;;3.67;1.48;;;;;;;;;;4175178;28;20090;-65
2022/05/14 06:07:45;;;;;;;3.28;1.90;;;;;;;;;;4190415;28;20078;-68
2022/05/14 06:09:47;;;;;;;4.47;2.05;;;;;;;;;;4176762;28;20886;-67
2022/05/14 06:11:50;;;;;;;3.55;1.90;;;;;;;;;;4173245;28;20052;-67
2022/05/14 06:13:52;;;;;;;3.60;1.65;;;;;;;;;;4187872;28;20525;-66
2022/05/14 06:15:54;;;;;;;4.10;2.08;;;;;;;;;;4190346;28;20451;-66
2022/05/14 06:18:00;;;;;;;5.80;1.70;;;;;;;;;;4189722;28;20446;-64
2022/05/14 06:20:01;;;;;;;4.53;2.42;;;;;;;;;;4188191;28;20106;-65
2022/05/14 06:22:04;;;;;;;10.02;2.50;;;;;;;;;;4189386;28;20024;-66
2022/05/14 06:24:06;;;;;;;4.47;1.73;;;;;;;;;;4187947;28;20492;-64
2022/05/14 06:26:08;;;;;;;2.67;1.75;;;;;;;;;;4189303;28;20113;-66
2022/05/14 06:28:09;;;;;;;5.03;2.03;;;;;;;;;;4189595;28;20369;-68
2022/05/14 06:30:11;;;;;;;4.35;1.60;;;;;;;;;;4189008;28;20032;-67
2022/05/14 06:32:13;;;;;;;2.40;1.75;;;;;;;;;;4186022;28;20082;-64
2022/05/14 06:34:14;;;;;;;4.10;1.63;;;;;;;;;;4172672;28;20094;-68
2022/05/14 06:36:16;;;;;;;8.70;2.95;;;;;;;;;;4171900;28;20070;-66
2022/05/14 06:38:17;;;;;;;7.15;2.13;;;;;;;;;;4173430;28;20057;-65
2022/05/14 06:40:19;;;;;;;2.03;1.90;;;;;;;;;;4172950;28;20111;-65
2022/05/14 06:42:20;;;;;;;2.60;1.85;;;;;;;;;;4173007;28;20032;-65
2022/05/14 06:44:21;;;;;;;7.38;2.10;;;23.00;99.90;;;;;;4173535;28;20111;-62
2022/05/14 06:46:22;;;;;;;2.92;1.70;;;24.80;96.40;;;;;;4173943;28;20078;-67
2022/05/14 06:48:23;;;;;;;7.43;2.00;;;24.30;96.70;;;;;;4172575;28;20040;-66
2022/05/14 06:50:26;;;;;;;8.15;3.33;;;24.00;97.00;;;;;;4172585;28;20128;-69
2022/05/14 06:52:27;;;;;;;2.53;2.00;;;24.10;97.10;;;;;;4172177;28;20029;-67
2022/05/14 06:54:31;;;;;;;6.40;2.20;;;23.90;97.20;;;;;;4172617;28;20128;-67
2022/05/14 06:56:36;;;;;;;2.60;2.00;;;23.90;97.30;;;;;;4171946;28;20130;-64
2022/05/14 06:58:39;;;;;;;5.47;1.80;;;23.60;97.40;;;;;;4172381;28;20045;-66
2022/05/14 07:00:40;;;;;;;7.65;4.18;;;23.50;97.80;;;;;;4173189;28;20021;-67
2022/05/14 07:02:42;;;;;;;6.28;4.05;;;23.40;98.20;;;;;;4172439;28;20037;-66
2022/05/14 07:07:05;;;;;;;7.50;2.88;;;23.20;98.50;;;;;;4171576;28;20076;-67
2022/05/14 07:09:14;;;;;;;3.88;2.42;;;23.10;98.50;;;;;;4171527;28;20078;-68
2022/05/14 07:11:15;;;;;;;4.93;2.28;;;23.00;98.70;;;;;;4171882;28;20041;-65
2022/05/14 07:13:17;;;;;;;3.60;2.28;;;23.00;98.90;;;;;;4172100;28;20045;-67
2022/05/14 07:15:18;;;;;;;3.55;2.50;;;23.10;98.70;;;;;;4172361;28;20029;-67
2022/05/14 07:17:19;;;;;;;4.10;2.28;;;23.30;98.50;;;;;;4172987;28;20071;-68
2022/05/14 07:19:21;;;;;;;4.32;2.47;;;23.40;98.80;;;;;;4172370;28;20017;-67
2022/05/14 07:21:23;;;;;;;4.65;2.63;;;23.50;98.40;;;;;;4172121;28;20454;-66
2022/05/14 07:23:24;;;;;;;8.55;2.70;;;23.50;98.30;;;;;;4171901;28;20055;-66
2022/05/14 07:25:26;;;;;;;6.47;2.50;;;23.50;98.40;;;;;;4172491;28;20045;-69
2022/05/14 07:27:28;;;;;;;5.75;2.47;;;23.40;98.40;;;;;;4172720;28;20086;-66
2022/05/14 07:29:30;;;;;;;5.38;2.42;;;23.30;98.50;;;;;;4176554;28;20029;-64
2022/05/14 07:31:31;;;;;;;6.93;2.47;;;23.40;98.60;;;;;;4171434;28;20423;-67
2022/05/14 07:33:32;;;;;;;5.28;2.22;;;23.30;98.70;;;;;;4170345;28;20102;-69
2022/05/14 07:35:34;;;;;;;3.45;2.20;;;23.40;98.90;;;;;;4171665;28;20021;-69
2022/05/14 07:37:41;;;;;;;5.40;1.92;;;23.70;98.70;;;;;;4171398;28;20079;-67
2022/05/14 07:39:46;;;;;;;2.65;2.05;;;;;;;;;;4172332;28;20040;-71
2022/05/14 07:41:52;;;;;;;6.28;2.40;;;;;;;;;;4185089;28;20137;-66
2022/05/14 07:43:54;;;;;;;16.40;8.32;;;;;;;;;;4188526;28;20021;-66
2022/05/14 07:46:00;;;;;;;4.35;2.50;;;;;;;;;;4185663;28;20094;-66
2022/05/14 07:48:03;;;;;;;6.60;3.20;;;;;;;;;;4187838;28;20032;-67
2022/05/14 07:50:05;;;;;;;2.85;2.00;;;;;;;;;;4172554;28;20074;-67
2022/05/14 07:52:07;;;;;;;3.15;2.25;;;;;;;;;;4171993;28;20141;-66
2022/05/14 07:54:09;;;;;;;4.85;2.38;;;24.00;98.00;;;;;;4171063;28;20033;-67
2022/05/14 07:56:11;;;;;;;2.30;1.60;;;;;;;;;;4171982;28;20067;-67
2022/05/14 07:58:12;;;;;;;5.00;2.00;;;24.40;96.80;;;;;;4171651;28;20063;-66
2022/05/14 08:00:14;;;;;;;3.58;1.90;;;;;;;;;;4171614;28;20140;-66
2022/05/14 08:02:26;;;;;;;2.30;1.70;;;;;;;;;;4171620;28;20033;-66
2022/05/14 08:04:27;;;;;;;5.35;2.17;;;24.40;97.10;;;;;;4186655;28;20040;-69
2022/05/14 08:06:28;;;;;;;5.82;2.08;;;24.30;96.90;;;;;;4171825;28;20025;-67
2022/05/14 08:08:31;;;;;;;7.20;2.35;;;23.90;97.50;;;;;;4183444;28;20028;-66
2022/05/14 08:10:32;;;;;;;7.30;2.38;;;;;;;;;;4180571;28;20036;-66
2022/05/14 08:12:35;;;;;;;3.03;2.20;;;;;;;;;;4171461;28;20095;-63
2022/05/14 08:14:39;;;;;;;3.47;2.22;;;;;;;;;;4171498;28;20029;-64
2022/05/14 08:16:41;;;;;;;3.92;2.50;;;;;;;;;;4171752;28;20037;-67
2022/05/14 08:18:42;;;;;;;4.13;3.30;;;;;;;;;;4169992;28;20592;-67
2022/05/14 08:20:45;;;;;;;6.45;2.80;;;;;;;;;;4171784;28;20060;-68
2022/05/14 08:25:07;;;;;;;3.45;2.60;;;;;;;;;;4171594;28;20045;-66
2022/05/14 08:27:09;;;;;;;2.28;1.90;;;;;;;;;;4171256;28;20465;-65
2022/05/14 08:29:11;;;;;;;5.28;2.35;;;;;;;;;;4171312;28;20087;-65
2022/05/14 08:31:12;;;;;;;6.55;2.90;;;;;;;;;;4171011;28;20021;-66
2022/05/14 08:33:14;;;;;;;3.90;2.47;;;;;;;;;;4171247;28;20056;-66
2022/05/14 08:35:16;;;;;;;6.90;2.50;;;24.00;97.50;;;;;;4171132;28;20029;-66
2022/05/14 08:37:17;;;;;;;2.75;2.22;;;24.30;95.60;;;;;;4171032;28;20441;-66
2022/05/14 08:39:18;;;;;;;6.10;2.72;;;24.20;95.90;;;;;;4171460;28;20035;-66
2022/05/14 08:41:20;;;;;;;3.42;2.30;;;24.00;96.10;;;;;;4171268;28;20094;-66
2022/05/14 08:43:32;;;;;;;3.92;1.73;;;;;;;;;;4171081;28;20067;-70
2022/05/14 08:45:36;;;;;;;7.15;2.05;;;;;;;;;;4171369;28;20037;-66
2022/05/14 08:47:48;;;;;;;3.78;2.25;;;24.20;96.30;;;;;;4172056;28;20527;-67
2022/05/14 08:49:52;;;;;;;3.55;2.10;;;24.30;94.50;;;;;;4173051;28;20033;-65
2022/05/14 08:51:56;;;;;;;2.28;2.00;;;24.30;94.90;;;;;;4174330;28;20033;-67
2022/05/14 08:53:57;;;;;;;4.45;2.58;;;;;;;;;;4174608;28;20087;-67
2022/05/14 08:56:17;;;;;;;3.13;2.20;;;24.30;95.00;;;;;;4174100;28;20052;-67
2022/05/14 08:58:33;;;;;;;6.47;2.42;;;24.20;94.70;;;;;;4174674;28;20114;-65
2022/05/14 09:00:34;;;;;;;5.32;2.25;;;24.10;95.30;;;;;;4173260;28;20029;-67
2022/05/14 09:02:42;;;;;;;4.80;2.42;;;23.70;95.40;;;;;;4174521;28;20090;-65
2022/05/14 09:04:44;;;;;;;2.22;2.03;;;23.80;95.30;;;;;;4172855;28;20062;-71
2022/05/14 09:06:47;;;;;;;7.05;1.67;;;23.40;94.60;;;;;;4173838;28;20037;-66
2022/05/14 09:08:49;;;;;;;3.20;2.35;;;23.30;95.10;;;;;;4173995;28;20170;-66
2022/05/14 09:11:00;;;;;;;10.38;2.55;;;23.60;94.70;;;;;;4173738;28;20049;-67
2022/05/14 09:13:21;;;;;;;4.20;2.10;;;23.80;94.40;;;;;;4173862;28;20431;-66
2022/05/14 09:15:25;;;;;;;2.45;1.70;;;23.80;94.40;;;;;;4173813;28;20150;-69
2022/05/14 09:17:29;;;;;;;3.90;2.17;;;23.90;93.70;;;;;;4174486;28;20107;-66
2022/05/14 09:19:39;;;;;;;4.38;2.10;;;23.70;93.80;;;;;;4174189;28;20033;-66
2022/05/14 09:21:49;;;;;;;11.20;3.83;;;23.30;93.50;;;;;;4173585;28;20099;-66
2022/05/14 09:23:55;;;;;;;5.15;1.92;;;23.30;94.10;;;;;;4173382;28;20854;-66
2022/05/14 09:26:08;;;;;;;5.28;1.83;;;23.40;94.20;;;;;;4174015;28;20419;-68
2022/05/14 09:28:12;;;;;;;3.53;1.55;;;23.60;93.20;;;;;;4173906;28;20032;-69
2022/05/14 09:30:25;;;;;;;3.47;1.40;;;23.80;93.20;;;;;;4174268;28;20041;-66
2022/05/14 09:32:33;;;;;;;3.75;1.90;;;24.00;92.80;;;;;;4173410;28;20074;-65
2022/05/14 09:34:35;;;;;;;3.78;1.90;;;24.00;92.30;;;;;;4173663;28;20021;-66
2022/05/14 09:36:37;;;;;;;2.70;1.70;;;23.60;92.30;;;;;;4174004;28;20025;-68
2022/05/14 09:38:38;;;;;;;3.97;1.80;;;23.70;92.50;;;;;;4173627;28;20669;-67
2022/05/14 09:40:40;;;;;;;5.28;1.70;;;;;;;;;;4173702;28;20111;-67
2022/05/14 09:42:43;;;;;;;1.88;1.52;;;;;;;;;;4174214;28;20960;-68
2022/05/14 09:44:49;;;;;;;2.65;1.55;;;;;;;;;;4173780;28;20055;-66
2022/05/14 09:46:52;;;;;;;3.05;1.75;;;;;;;;;;4173896;28;20099;-66
2022/05/14 09:49:00;;;;;;;4.22;1.83;;;;;;;;;;4172925;28;20075;-66
2022/05/14 09:51:05;;;;;;;6.47;1.90;;;23.90;92.50;;;;;;4172218;28;20045;-66
2022/05/14 09:53:07;;;;;;;5.63;2.38;;;24.10;91.60;;;;;;4173735;28;20106;-66
2022/05/14 09:55:09;;;;;;;5.25;2.05;;;23.90;91.20;;;;;;4173612;28;20087;-66
2022/05/14 09:57:28;;;;;;;2.60;1.42;;;23.90;91.20;;;;;;4173716;28;20633;-68
2022/05/14 09:59:29;;;;;;;4.72;2.05;;;;;;;;;;4173341;28;20045;-66
2022/05/14 10:01:38;;;;;;;2.00;1.50;;;;;;;;;;4173658;28;20029;-66
2022/05/14 10:03:42;;;;;;;5.68;1.77;;;;;;;;;;4172128;28;20045;-67
2022/05/14 10:05:46;;;;;;;2.53;1.42;;;;;;;;;;4173405;28;20029;-65
2022/05/14 10:07:52;;;;;;;4.68;1.80;;;;;;;;;;4173074;28;20094;-67
2022/05/14 10:10:12;;;;;;;1.60;1.50;;;;;;;;;;4173164;28;20028;-66
2022/05/14 10:12:26;;;;;;;19.15;3.30;;;;;;;;;;4173074;28;20115;-67
2022/05/14 10:14:33;;;;;;;11.20;2.28;;;;;;;;;;4173264;28;20029;-66
2022/05/14 10:16:47;;;;;;;2.33;1.70;;;24.00;90.00;;;;;;4173543;28;20040;-67
2022/05/14 10:19:25;;;;;;;17.85;4.40;;;23.90;89.00;;;;;;4172770;28;20040;-67
2022/05/14 10:21:47;;;;;;;15.55;3.35;;;23.40;89.50;;;;;;4173032;28;20059;-65
2022/05/14 10:26:47;;;;;;;5.97;1.67;;;23.10;90.40;;;;;;4173559;28;20896;-66
2022/05/14 10:29:15;;;;;;;3.55;1.77;;;23.20;90.70;;;;;;4172714;28;20028;-66
2022/05/14 10:31:22;;;;;;;2.63;1.90;;;23.20;90.50;;;;;;4173020;28;20025;-66
2022/05/14 10:33:26;;;;;;;3.47;2.35;;;23.20;91.00;;;;;;4172724;28;20075;-67
2022/05/14 10:35:35;;;;;;;16.85;3.45;;;23.10;91.20;;;;;;4172515;28;20439;-67
2022/05/14 10:37:59;;;;;;;11.15;2.97;;;23.10;91.60;;;;;;4172709;28;20698;-66
2022/05/14 10:40:24;;;;;;;3.15;1.83;;;23.20;91.10;;;;;;4172374;28;20033;-65
2022/05/14 10:42:56;;;;;;;2.05;1.45;;;23.40;90.70;;;;;;4172328;28;20033;-66
2022/05/14 10:45:19;;;;;;;10.02;2.00;;;23.70;89.90;;;;;;4137259;28;20157;-66
2022/05/14 10:47:20;;;;;;;3.15;1.95;;;23.60;88.20;;;;;;4172047;28;20040;-66
2022/05/14 10:49:59;;;;;;;5.15;2.00;;;23.40;90.10;;;;;;4172772;28;20025;-65
2022/05/14 10:52:00;;;;;;;3.92;1.70;;;23.40;90.20;;;;;;4159795;28;20044;-69
2022/05/14 10:54:02;;;;;;;2.85;1.60;;;23.40;89.60;;;;;;4172784;28;20083;-66
2022/05/14 10:56:24;;;;;;;2.60;1.40;;;23.50;89.00;;;;;;4171943;28;20492;-66
2022/05/14 10:58:39;;;;;;;5.13;1.58;;;23.60;88.10;;;;;;4172197;28;20033;-66
2022/05/14 11:00:43;;;;;;;5.88;2.03;;;23.50;89.20;;;;;;4172400;28;20045;-67
2022/05/14 11:02:57;;;;;;;4.10;1.80;;;23.60;88.90;;;;;;4172256;28;20475;-67
2022/05/14 11:05:00;;;;;;;9.43;2.60;;;23.50;87.60;;;;;;4172440;28;20103;-67
2022/05/14 11:07:04;;;;;;;22.58;3.67;;;23.10;88.30;;;;;;4172536;28;20090;-67
2022/05/14 11:09:21;;;;;;;6.97;2.17;;;22.90;89.50;;;;;;4172593;28;20033;-67
2022/05/14 11:11:28;;;;;;;14.05;3.13;;;22.90;90.00;;;;;;4170556;28;20158;-66
2022/05/14 11:13:30;;;;;;;2.10;1.52;;;23.10;90.30;;;;;;4172108;28;20086;-67
2022/05/14 11:15:31;;;;;;;3.38;1.42;;;23.30;90.30;;;;;;4171908;28;20453;-66
2022/05/14 11:17:38;;;;;;;6.47;1.70;;;23.50;90.00;;;;;;4172928;28;20028;-66
2022/05/14 11:19:40;;;;;;;1.55;1.45;;;23.50;87.40;;;;;;4172282;28;20471;-67
2022/05/14 11:21:45;;;;;;;3.78;1.67;;;23.20;88.10;;;;;;4171943;28;20083;-66
2022/05/14 11:24:01;;;;;;;3.10;2.05;;;23.10;89.10;;;;;;4172332;28;20114;-66
2022/05/14 11:26:12;;;;;;;6.38;2.90;;;23.20;90.10;;;;;;4172249;28;20730;-67
2022/05/14 11:28:27;;;;;;;7.13;2.05;;;23.20;89.90;;;;;;4172432;28;20493;-67